createdAt,value
2023-03-07T00:00:40.289Z,996.09
2023-03-07T00:01:40.283Z,996.13
2023-03-07T00:02:40.365Z,996.03
2023-03-07T00:03:40.316Z,996.08
2023-03-07T00:04:40.264Z,996.03
2023-03-07T00:05:40.228Z,996.05
2023-03-07T00:06:40.247Z,996.03
2023-03-07T00:07:40.268Z,996.05
2023-03-07T00:08:40.201Z,996.03
2023-03-07T00:09:40.182Z,996.01
2023-03-07T00:10:40.177Z,996.03
2023-03-07T00:11:40.166Z,996.02
2023-03-07T00:12:40.188Z,996.01
2023-03-07T00:13:40.140Z,995.91
2023-03-07T00:14:40.153Z,995.94
2023-03-07T00:15:40.122Z,995.94
2023-03-07T00:16:40.117Z,995.92
2023-03-07T00:17:40.109Z,995.85
2023-03-07T00:18:40.088Z,995.88
2023-03-07T00:19:40.097Z,995.85
2023-03-07T00:20:40.131Z,995.85
2023-03-07T00:21:40.057Z,995.86
2023-03-07T00:22:40.129Z,995.87
2023-03-07T00:23:40.102Z,995.77
2023-03-07T00:24:40.044Z,995.74
2023-03-07T00:25:40.014Z,995.74
2023-03-07T00:26:40.008Z,995.70
2023-03-07T00:27:40.059Z,995.70
2023-03-07T00:28:39.992Z,995.67
2023-03-07T00:29:39.974Z,995.68
2023-03-07T00:30:39.974Z,995.64
2023-03-07T00:31:40.047Z,995.61
2023-03-07T00:32:40.078Z,995.59
2023-03-07T00:33:39.930Z,995.55
2023-03-07T00:34:39.937Z,995.51
2023-03-07T00:35:39.934Z,995.54
2023-03-07T00:36:39.900Z,995.54
2023-03-07T00:37:39.945Z,995.54
2023-03-07T00:38:40.041Z,995.55
2023-03-07T00:39:39.874Z,995.50
2023-03-07T00:40:39.856Z,995.48
2023-03-07T00:41:39.847Z,995.49
2023-03-07T00:42:39.867Z,995.45
2023-03-07T00:43:39.820Z,995.43
2023-03-07T00:44:39.822Z,995.43
2023-03-07T00:45:39.822Z,995.41
2023-03-07T00:46:39.803Z,995.35
2023-03-07T00:47:39.797Z,995.36
2023-03-07T00:48:39.795Z,995.32
2023-03-07T00:49:39.766Z,995.30
2023-03-07T00:50:39.755Z,995.30
2023-03-07T00:51:39.744Z,995.28
2023-03-07T00:52:39.749Z,995.24
2023-03-07T00:53:39.732Z,995.22
2023-03-07T00:54:39.729Z,995.20
2023-03-07T00:55:39.703Z,995.13
2023-03-07T00:56:39.691Z,995.14
2023-03-07T00:57:39.691Z,995.11
2023-03-07T00:58:39.672Z,995.07
2023-03-07T00:59:39.661Z,995.05
2023-03-07T01:00:39.697Z,995.06
2023-03-07T01:01:39.654Z,995.03
2023-03-07T01:02:39.659Z,994.97
2023-03-07T01:03:39.640Z,995.00
2023-03-07T01:04:39.613Z,994.96
2023-03-07T01:05:39.594Z,994.95
2023-03-07T01:06:39.581Z,994.97
2023-03-07T01:07:39.587Z,994.88
2023-03-07T01:08:39.567Z,994.91
2023-03-07T01:09:39.552Z,994.90
2023-03-07T01:10:39.591Z,994.88
2023-03-07T01:11:39.529Z,994.88
2023-03-07T01:12:39.545Z,994.89
2023-03-07T01:13:39.514Z,994.86
2023-03-07T01:14:39.501Z,994.82
2023-03-07T01:15:39.483Z,994.77
2023-03-07T01:16:39.577Z,994.77
2023-03-07T01:17:39.511Z,994.75
2023-03-07T01:18:39.455Z,994.68
2023-03-07T01:19:39.500Z,994.71
2023-03-07T01:20:39.440Z,994.65
2023-03-07T01:21:39.424Z,994.63
2023-03-07T01:22:39.433Z,994.67
2023-03-07T01:23:39.407Z,994.65
2023-03-07T01:24:39.404Z,994.66
2023-03-07T01:25:39.401Z,994.58
2023-03-07T01:26:39.401Z,994.60
2023-03-07T01:27:39.359Z,994.58
2023-03-07T01:28:39.354Z,994.54
2023-03-07T01:29:39.366Z,994.50
2023-03-07T01:30:39.358Z,994.49
2023-03-07T01:31:39.359Z,994.49
2023-03-07T01:32:39.336Z,994.44
2023-03-07T01:33:39.300Z,994.40
2023-03-07T01:34:39.291Z,994.40
2023-03-07T01:35:39.325Z,994.37
2023-03-07T01:36:39.371Z,994.34
2023-03-07T01:37:39.320Z,994.26
2023-03-07T01:38:39.258Z,994.33
2023-03-07T01:39:39.233Z,994.26
2023-03-07T01:40:39.249Z,994.26
2023-03-07T01:41:39.224Z,994.14
2023-03-07T01:42:39.239Z,994.13
2023-03-07T01:43:39.193Z,994.07
2023-03-07T01:44:39.190Z,994.03
2023-03-07T01:45:39.193Z,994.00
2023-03-07T01:46:39.159Z,994.03
2023-03-07T01:47:39.171Z,993.98
2023-03-07T01:48:39.145Z,993.98
2023-03-07T01:49:39.194Z,993.92
2023-03-07T01:50:39.120Z,993.90
2023-03-07T01:51:39.108Z,993.88
2023-03-07T01:52:39.107Z,993.85
2023-03-07T01:53:39.086Z,993.82
2023-03-07T01:54:39.074Z,993.79
2023-03-07T01:55:39.093Z,993.70
2023-03-07T01:56:39.049Z,993.74
2023-03-07T01:57:39.072Z,993.70
2023-03-07T01:58:39.056Z,993.74
2023-03-07T01:59:39.020Z,993.69
2023-03-07T02:00:39.013Z,993.68
2023-03-07T02:01:39.157Z,993.67
2023-03-07T02:02:39.014Z,993.63
2023-03-07T02:03:38.976Z,993.62
2023-03-07T02:04:39.051Z,993.63
2023-03-07T02:05:38.954Z,993.56
2023-03-07T02:06:38.964Z,993.59
2023-03-07T02:07:38.930Z,993.57
2023-03-07T02:08:38.956Z,993.52
2023-03-07T02:09:38.967Z,993.52
2023-03-07T02:10:38.904Z,993.43
2023-03-07T02:11:38.920Z,993.43
2023-03-07T02:12:38.903Z,993.43
2023-03-07T02:13:38.874Z,993.39
2023-03-07T02:14:38.876Z,993.41
2023-03-07T02:15:38.917Z,993.34
2023-03-07T02:16:38.862Z,993.31
2023-03-07T02:17:38.824Z,993.29
2023-03-07T02:18:38.934Z,993.29
2023-03-07T02:19:38.830Z,993.25
2023-03-07T02:20:38.795Z,993.17
2023-03-07T02:21:38.846Z,993.19
2023-03-07T02:22:38.779Z,993.17
2023-03-07T02:23:38.782Z,993.16
2023-03-07T02:24:38.757Z,993.13
2023-03-07T02:25:38.752Z,993.08
2023-03-07T02:26:38.733Z,993.07
2023-03-07T02:27:38.716Z,993.00
2023-03-07T02:28:38.742Z,993.01
2023-03-07T02:29:38.701Z,993.00
2023-03-07T02:30:38.883Z,992.98
2023-03-07T02:31:38.690Z,992.95
2023-03-07T02:32:38.734Z,992.98
2023-03-07T02:33:38.692Z,992.95
2023-03-07T02:34:38.649Z,992.94
2023-03-07T02:35:38.654Z,992.86
2023-03-07T02:36:38.623Z,992.86
2023-03-07T02:37:38.617Z,992.87
2023-03-07T02:38:38.621Z,992.85
2023-03-07T02:39:38.594Z,992.76
2023-03-07T02:40:38.579Z,992.72
2023-03-07T02:41:38.570Z,992.68
2023-03-07T02:42:38.567Z,992.62
2023-03-07T02:43:38.572Z,992.64
2023-03-07T02:44:38.542Z,992.65
2023-03-07T02:45:38.587Z,992.56
2023-03-07T02:46:38.540Z,992.57
2023-03-07T02:47:38.509Z,992.53
2023-03-07T02:48:38.523Z,992.55
2023-03-07T02:49:38.492Z,992.52
2023-03-07T02:50:38.477Z,992.52
2023-03-07T02:51:38.469Z,992.45
2023-03-07T02:52:38.460Z,992.39
2023-03-07T02:53:38.498Z,992.40
2023-03-07T02:54:38.438Z,992.33
2023-03-07T02:55:38.436Z,992.33
2023-03-07T02:56:38.413Z,992.38
2023-03-07T02:57:38.412Z,992.29
2023-03-07T02:58:38.412Z,992.29
2023-03-07T02:59:38.392Z,992.26
2023-03-07T03:00:38.376Z,992.18
2023-03-07T03:01:38.384Z,992.22
2023-03-07T03:02:38.381Z,992.17
2023-03-07T03:03:38.413Z,992.14
2023-03-07T03:04:38.362Z,992.17
2023-03-07T03:05:38.324Z,992.10
2023-03-07T03:06:38.316Z,992.13
2023-03-07T03:07:38.311Z,992.12
2023-03-07T03:08:38.311Z,992.08
2023-03-07T03:09:38.277Z,992.07
2023-03-07T03:10:38.298Z,992.04
2023-03-07T03:11:38.266Z,992.04
2023-03-07T03:12:38.248Z,991.97
2023-03-07T03:13:39.152Z,991.94
2023-03-07T03:14:38.228Z,991.93
2023-03-07T03:15:38.232Z,991.88
2023-03-07T03:16:38.212Z,991.84
2023-03-07T03:17:38.191Z,991.85
2023-03-07T03:18:38.220Z,991.86
2023-03-07T03:19:38.176Z,991.81
2023-03-07T03:20:38.165Z,991.76
2023-03-07T03:21:38.219Z,991.74
2023-03-07T03:22:38.141Z,991.67
2023-03-07T03:23:38.171Z,991.68
2023-03-07T03:24:38.117Z,991.62
2023-03-07T03:25:40.093Z,991.64
2023-03-07T03:26:38.112Z,991.66
2023-03-07T03:27:38.098Z,991.56
2023-03-07T03:28:38.104Z,991.58
2023-03-07T03:29:38.070Z,991.61
2023-03-07T03:30:38.072Z,991.57
2023-03-07T03:31:38.100Z,991.53
2023-03-07T03:32:38.111Z,991.52
2023-03-07T03:33:38.058Z,991.51
2023-03-07T03:34:38.048Z,991.56
2023-03-07T03:35:38.036Z,991.49
2023-03-07T03:36:38.014Z,991.47
2023-03-07T03:37:37.979Z,991.50
2023-03-07T03:38:37.999Z,991.44
2023-03-07T03:39:37.973Z,991.39
2023-03-07T03:40:37.954Z,991.31
2023-03-07T03:41:37.946Z,991.30
2023-03-07T03:42:37.950Z,991.25
2023-03-07T03:43:38.033Z,991.28
2023-03-07T03:44:37.908Z,991.27
2023-03-07T03:45:37.899Z,991.23
2023-03-07T03:46:37.951Z,991.24
2023-03-07T03:47:37.883Z,991.14
2023-03-07T03:48:37.956Z,991.12
2023-03-07T03:49:37.853Z,991.13
2023-03-07T03:50:37.873Z,991.10
2023-03-07T03:51:37.836Z,991.07
2023-03-07T03:52:37.833Z,991.05
2023-03-07T03:53:37.838Z,991.04
2023-03-07T03:54:37.803Z,991.04
2023-03-07T03:55:37.789Z,991.01
2023-03-07T03:56:37.785Z,990.94
2023-03-07T03:57:37.782Z,990.98
2023-03-07T03:58:37.783Z,990.99
2023-03-07T03:59:37.752Z,990.96
2023-03-07T04:00:37.740Z,990.95
2023-03-07T04:01:37.806Z,990.92
2023-03-07T04:02:37.843Z,990.87
2023-03-07T04:03:37.714Z,990.89
2023-03-07T04:04:37.714Z,990.89
2023-03-07T04:05:37.687Z,990.88
2023-03-07T04:06:37.689Z,990.82
2023-03-07T04:07:37.687Z,990.82
2023-03-07T04:08:37.651Z,990.81
2023-03-07T04:09:37.644Z,990.82
2023-03-07T04:10:37.638Z,990.82
2023-03-07T04:11:37.675Z,990.79
2023-03-07T04:12:37.648Z,990.71
2023-03-07T04:13:37.607Z,990.71
2023-03-07T04:14:37.625Z,990.74
2023-03-07T04:15:37.576Z,990.71
2023-03-07T04:16:37.621Z,990.69
2023-03-07T04:17:37.551Z,990.67
2023-03-07T04:18:37.540Z,990.61
2023-03-07T04:19:37.546Z,990.60
2023-03-07T04:20:37.524Z,990.59
2023-03-07T04:21:37.514Z,990.52
2023-03-07T04:22:37.522Z,990.47
2023-03-07T04:23:37.485Z,990.49
2023-03-07T04:24:37.501Z,990.45
2023-03-07T04:25:37.508Z,990.40
2023-03-07T04:26:37.455Z,990.43
2023-03-07T04:27:37.452Z,990.40
2023-03-07T04:28:37.440Z,990.36
2023-03-07T04:29:37.466Z,990.27
2023-03-07T04:30:37.418Z,990.28
2023-03-07T04:31:37.448Z,990.34
2023-03-07T04:32:37.457Z,990.27
2023-03-07T04:33:37.385Z,990.28
2023-03-07T04:34:37.411Z,990.30
2023-03-07T04:35:37.379Z,990.28
2023-03-07T04:36:37.357Z,990.26
2023-03-07T04:37:37.350Z,990.31
2023-03-07T04:38:37.348Z,990.21
2023-03-07T04:39:37.347Z,990.20
2023-03-07T04:40:37.308Z,990.17
2023-03-07T04:41:37.292Z,990.09
2023-03-07T04:42:37.308Z,990.15
2023-03-07T04:43:37.294Z,990.10
2023-03-07T04:44:37.314Z,990.08
2023-03-07T04:45:37.420Z,990.08
2023-03-07T04:46:37.251Z,990.07
2023-03-07T04:47:37.252Z,990.05
2023-03-07T04:48:37.220Z,990.09
2023-03-07T04:49:37.235Z,990.00
2023-03-07T04:50:37.197Z,990.00
2023-03-07T04:51:37.193Z,990.05
2023-03-07T04:52:37.171Z,990.02
2023-03-07T04:53:37.187Z,990.00
2023-03-07T04:54:37.191Z,990.02
2023-03-07T04:55:37.151Z,989.99
2023-03-07T04:56:37.130Z,989.95
2023-03-07T04:57:37.126Z,989.95
2023-03-07T04:58:37.124Z,989.91
2023-03-07T04:59:37.110Z,989.91
2023-03-07T05:00:37.105Z,989.83
2023-03-07T05:01:37.154Z,989.83
2023-03-07T05:02:37.064Z,989.79
2023-03-07T05:03:37.094Z,989.83
2023-03-07T05:04:37.113Z,989.78
2023-03-07T05:05:37.796Z,989.77
2023-03-07T05:06:37.033Z,989.76
2023-03-07T05:07:37.020Z,989.66
2023-03-07T05:08:37.020Z,989.71
2023-03-07T05:09:36.994Z,989.73
2023-03-07T05:10:37.102Z,989.68
2023-03-07T05:11:36.976Z,989.70
2023-03-07T05:12:36.966Z,989.70
2023-03-07T05:13:37.003Z,989.67
2023-03-07T05:14:36.965Z,989.60
2023-03-07T05:15:36.955Z,989.60
2023-03-07T05:16:36.925Z,989.57
2023-03-07T05:17:36.914Z,989.59
2023-03-07T05:18:36.892Z,989.57
2023-03-07T05:19:36.913Z,989.50
2023-03-07T05:20:36.885Z,989.52
2023-03-07T05:21:36.883Z,989.46
2023-03-07T05:22:36.853Z,989.51
2023-03-07T05:23:36.842Z,989.45
2023-03-07T05:24:36.845Z,989.50
2023-03-07T05:25:36.823Z,989.53
2023-03-07T05:26:36.841Z,989.43
2023-03-07T05:27:36.806Z,989.44
2023-03-07T05:28:36.793Z,989.48
2023-03-07T05:29:36.810Z,989.47
2023-03-07T05:30:36.763Z,989.43
2023-03-07T05:31:36.824Z,989.46
2023-03-07T05:32:36.838Z,989.39
2023-03-07T05:33:36.750Z,989.43
2023-03-07T05:34:36.791Z,989.41
2023-03-07T05:35:36.785Z,989.45
2023-03-07T05:36:36.712Z,989.40
2023-03-07T05:37:36.695Z,989.41
2023-03-07T05:38:36.699Z,989.37
2023-03-07T05:39:36.711Z,989.34
2023-03-07T05:40:36.675Z,989.37
2023-03-07T05:41:36.652Z,989.37
2023-03-07T05:42:36.661Z,989.40
2023-03-07T05:43:36.643Z,989.37
2023-03-07T05:44:36.670Z,989.41
2023-03-07T05:45:36.609Z,989.33
2023-03-07T05:46:36.738Z,989.46
2023-03-07T05:47:36.598Z,989.42
2023-03-07T05:48:36.576Z,989.38
2023-03-07T05:49:36.578Z,989.40
2023-03-07T05:50:36.561Z,989.34
2023-03-07T05:51:36.547Z,989.38
2023-03-07T05:52:36.544Z,989.36
2023-03-07T05:53:36.530Z,989.34
2023-03-07T05:54:36.567Z,989.42
2023-03-07T05:55:36.500Z,989.42
2023-03-07T05:56:36.496Z,989.35
2023-03-07T05:57:36.479Z,989.32
2023-03-07T05:58:36.557Z,989.34
2023-03-07T05:59:36.487Z,989.33
2023-03-07T06:00:36.467Z,989.33
2023-03-07T06:01:36.443Z,989.30
2023-03-07T06:02:36.426Z,989.24
2023-03-07T06:03:36.534Z,989.29
2023-03-07T06:04:36.488Z,989.28
2023-03-07T06:05:36.398Z,989.32
2023-03-07T06:06:36.379Z,989.29
2023-03-07T06:07:36.438Z,989.29
2023-03-07T06:08:36.355Z,989.23
2023-03-07T06:09:36.371Z,989.26
2023-03-07T06:10:36.342Z,989.23
2023-03-07T06:11:36.327Z,989.33
2023-03-07T06:12:36.329Z,989.22
2023-03-07T06:13:36.304Z,989.24
2023-03-07T06:14:36.390Z,989.27
2023-03-07T06:15:36.285Z,989.19
2023-03-07T06:16:36.280Z,989.21
2023-03-07T06:17:36.268Z,989.20
2023-03-07T06:18:36.250Z,989.19
2023-03-07T06:19:36.315Z,989.23
2023-03-07T06:20:36.229Z,989.22
2023-03-07T06:21:36.220Z,989.28
2023-03-07T06:22:36.209Z,989.23
2023-03-07T06:23:36.237Z,989.23
2023-03-07T06:24:36.224Z,989.26
2023-03-07T06:25:36.187Z,989.28
2023-03-07T06:26:36.164Z,989.27
2023-03-07T06:27:36.179Z,989.26
2023-03-07T06:28:36.150Z,989.35
2023-03-07T06:29:36.160Z,989.17
2023-03-07T06:30:36.145Z,989.19
2023-03-07T06:31:36.170Z,989.20
2023-03-07T06:32:36.163Z,989.27
2023-03-07T06:33:36.096Z,989.15
2023-03-07T06:34:36.096Z,989.25
2023-03-07T06:35:36.108Z,989.19
2023-03-07T06:36:36.070Z,989.21
2023-03-07T06:37:36.057Z,989.19
2023-03-07T06:38:36.036Z,989.19
2023-03-07T06:39:36.056Z,989.17
2023-03-07T06:40:36.030Z,989.19
2023-03-07T06:41:36.021Z,989.18
2023-03-07T06:42:36.026Z,989.21
2023-03-07T06:43:35.986Z,989.27
2023-03-07T06:44:35.988Z,989.22
2023-03-07T06:45:35.975Z,989.23
2023-03-07T06:46:35.999Z,989.19
2023-03-07T06:47:35.961Z,989.20
2023-03-07T06:48:35.957Z,989.25
2023-03-07T06:49:35.940Z,989.26
2023-03-07T06:50:35.981Z,989.31
2023-03-07T06:51:37.844Z,989.28
2023-03-07T06:52:35.900Z,989.29
2023-03-07T06:53:35.902Z,989.32
2023-03-07T06:54:35.893Z,989.32
2023-03-07T06:55:35.865Z,989.34
2023-03-07T06:56:35.894Z,989.35
2023-03-07T06:57:35.841Z,989.33
2023-03-07T06:58:35.849Z,989.38
2023-03-07T06:59:35.826Z,989.42
2023-03-07T07:00:35.819Z,989.42
2023-03-07T07:01:35.861Z,989.41
2023-03-07T07:02:35.998Z,989.41
2023-03-07T07:03:35.848Z,989.44
2023-03-07T07:04:35.765Z,989.43
2023-03-07T07:05:35.798Z,989.43
2023-03-07T07:06:35.746Z,989.43
2023-03-07T07:07:35.746Z,989.42
2023-03-07T07:08:35.738Z,989.40
2023-03-07T07:09:35.717Z,989.41
2023-03-07T07:10:35.711Z,989.38
2023-03-07T07:11:35.689Z,989.34
2023-03-07T07:12:35.699Z,989.28
2023-03-07T07:13:35.696Z,989.28
2023-03-07T07:14:35.657Z,989.26
2023-03-07T07:15:35.698Z,989.24
2023-03-07T07:16:35.679Z,989.23
2023-03-07T07:17:35.688Z,989.20
2023-03-07T07:18:35.637Z,989.22
2023-03-07T07:19:35.618Z,989.24
2023-03-07T07:20:35.612Z,989.20
2023-03-07T07:21:35.617Z,989.22
2023-03-07T07:22:35.624Z,989.28
2023-03-07T07:23:35.565Z,989.20
2023-03-07T07:24:35.548Z,989.24
2023-03-07T07:25:35.557Z,989.25
2023-03-07T07:26:35.526Z,989.19
2023-03-07T07:27:35.529Z,989.22
2023-03-07T07:28:35.505Z,989.19
2023-03-07T07:29:35.496Z,989.18
2023-03-07T07:30:35.512Z,989.19
2023-03-07T07:31:35.629Z,989.20
2023-03-07T07:32:35.914Z,989.16
2023-03-07T07:33:35.472Z,989.20
2023-03-07T07:34:35.469Z,989.11
2023-03-07T07:35:35.503Z,989.12
2023-03-07T07:36:35.426Z,989.12
2023-03-07T07:37:35.414Z,989.10
2023-03-07T07:38:35.400Z,989.14
2023-03-07T07:39:35.393Z,989.18
2023-03-07T07:40:35.412Z,989.18
2023-03-07T07:41:35.384Z,989.18
2023-03-07T07:42:35.359Z,989.14
2023-03-07T07:43:35.347Z,989.20
2023-03-07T07:44:35.375Z,989.13
2023-03-07T07:45:35.414Z,989.20
2023-03-07T07:46:35.324Z,989.09
2023-03-07T07:47:35.311Z,989.11
2023-03-07T07:48:35.309Z,989.07
2023-03-07T07:49:35.283Z,989.10
2023-03-07T07:50:35.333Z,989.09
2023-03-07T07:51:35.301Z,989.09
2023-03-07T07:52:35.259Z,989.10
2023-03-07T07:53:35.258Z,989.16
2023-03-07T07:54:35.233Z,989.13
2023-03-07T07:55:35.239Z,989.11
2023-03-07T07:56:35.213Z,989.10
2023-03-07T07:57:35.211Z,989.12
2023-03-07T07:58:35.193Z,989.14
2023-03-07T07:59:35.177Z,989.09
2023-03-07T08:00:35.186Z,989.11
2023-03-07T08:01:35.158Z,989.14
2023-03-07T08:02:35.181Z,989.15
2023-03-07T08:03:35.173Z,989.12
2023-03-07T08:04:35.130Z,989.10
2023-03-07T08:05:35.144Z,989.19
2023-03-07T08:06:35.128Z,989.21
2023-03-07T08:07:35.107Z,989.14
2023-03-07T08:08:35.095Z,989.15
2023-03-07T08:09:35.092Z,989.12
2023-03-07T08:10:35.082Z,989.12
2023-03-07T08:11:35.049Z,989.14
2023-03-07T08:12:35.054Z,989.11
2023-03-07T08:13:35.026Z,989.11
2023-03-07T08:14:35.040Z,989.15
2023-03-07T08:15:35.111Z,989.12
2023-03-07T08:16:35.002Z,989.08
2023-03-07T08:17:34.985Z,989.11
2023-03-07T08:18:34.972Z,989.17
2023-03-07T08:19:34.962Z,989.16
2023-03-07T08:20:34.973Z,989.20
2023-03-07T08:21:34.948Z,989.20
2023-03-07T08:22:34.959Z,989.16
2023-03-07T08:23:34.916Z,989.18
2023-03-07T08:24:40.627Z,989.15
2023-03-07T08:25:35.919Z,989.13
2023-03-07T08:26:34.893Z,989.16
2023-03-07T08:27:34.894Z,989.09
2023-03-07T08:28:34.871Z,989.09
2023-03-07T08:29:34.860Z,989.11
2023-03-07T08:30:34.860Z,989.09
2023-03-07T08:31:34.884Z,989.06
2023-03-07T08:32:34.892Z,989.03
2023-03-07T08:33:34.811Z,988.98
2023-03-07T08:34:34.802Z,988.99
2023-03-07T08:35:34.837Z,989.04
2023-03-07T08:36:34.793Z,988.98
2023-03-07T08:37:34.769Z,989.01
2023-03-07T08:38:34.886Z,989.00
2023-03-07T08:39:34.762Z,989.00
2023-03-07T08:40:34.775Z,989.00
2023-03-07T08:41:34.735Z,989.04
2023-03-07T08:42:34.771Z,989.10
2023-03-07T08:43:34.711Z,988.98
2023-03-07T08:44:34.736Z,989.02
2023-03-07T08:45:34.700Z,989.08
2023-03-07T08:46:34.686Z,989.04
2023-03-07T08:47:34.658Z,989.08
2023-03-07T08:48:34.647Z,989.06
2023-03-07T08:49:34.644Z,989.09
2023-03-07T08:50:34.644Z,989.05
2023-03-07T08:51:34.617Z,989.07
2023-03-07T08:52:34.601Z,989.08
2023-03-07T08:53:34.598Z,989.05
2023-03-07T08:54:34.609Z,989.08
2023-03-07T08:55:34.578Z,988.98
2023-03-07T08:56:34.573Z,989.00
2023-03-07T08:57:34.546Z,989.02
2023-03-07T08:58:34.537Z,988.97
2023-03-07T08:59:34.529Z,989.03
2023-03-07T09:00:34.524Z,988.95
2023-03-07T09:01:34.540Z,988.92
2023-03-07T09:02:34.493Z,988.96
2023-03-07T09:03:34.477Z,988.96
2023-03-07T09:04:34.532Z,989.02
2023-03-07T09:05:34.478Z,989.05
2023-03-07T09:06:34.450Z,989.00
2023-03-07T09:07:34.444Z,989.05
2023-03-07T09:08:34.426Z,989.00
2023-03-07T09:09:34.412Z,989.00
2023-03-07T09:10:34.465Z,989.03
2023-03-07T09:11:34.398Z,988.91
2023-03-07T09:12:34.388Z,988.98
2023-03-07T09:13:43.041Z,989.05
2023-03-07T09:14:35.362Z,988.96
2023-03-07T09:15:34.402Z,989.02
2023-03-07T09:16:34.411Z,989.00
2023-03-07T09:17:34.326Z,989.00
2023-03-07T09:18:34.344Z,989.02
2023-03-07T09:19:34.306Z,989.05
2023-03-07T09:20:34.347Z,988.97
2023-03-07T09:21:34.294Z,989.01
2023-03-07T09:22:34.313Z,989.02
2023-03-07T09:23:34.270Z,988.94
2023-03-07T09:24:34.260Z,988.95
2023-03-07T09:25:34.278Z,988.98
2023-03-07T09:26:34.271Z,988.93
2023-03-07T09:27:34.222Z,988.92
2023-03-07T09:28:34.217Z,988.85
2023-03-07T09:29:34.199Z,988.99
2023-03-07T09:30:34.278Z,988.87
2023-03-07T09:31:34.238Z,988.89
2023-03-07T09:32:34.198Z,988.89
2023-03-07T09:33:34.161Z,988.88
2023-03-07T09:34:34.152Z,988.91
2023-03-07T09:35:34.200Z,988.94
2023-03-07T09:36:34.133Z,988.90
2023-03-07T09:37:34.115Z,988.85
2023-03-07T09:38:34.115Z,988.93
2023-03-07T09:39:34.096Z,988.92
2023-03-07T09:40:34.103Z,988.90
2023-03-07T09:41:34.139Z,988.90
2023-03-07T09:42:34.080Z,988.84
2023-03-07T09:43:34.056Z,988.92
2023-03-07T09:44:34.041Z,988.81
2023-03-07T09:45:34.106Z,988.78
2023-03-07T09:46:34.028Z,988.82
2023-03-07T09:47:34.009Z,988.84
2023-03-07T09:48:34.010Z,988.95
2023-03-07T09:49:33.992Z,988.90
2023-03-07T09:50:34.018Z,988.93
2023-03-07T09:51:33.966Z,988.85
2023-03-07T09:52:33.953Z,988.93
2023-03-07T09:53:33.954Z,988.89
2023-03-07T09:54:41.638Z,988.96
2023-03-07T09:55:34.271Z,988.87
2023-03-07T09:56:33.910Z,988.86
2023-03-07T09:57:33.893Z,988.93
2023-03-07T09:58:33.911Z,988.89
2023-03-07T09:59:33.877Z,988.91
2023-03-07T10:00:33.887Z,988.96
2023-03-07T10:01:33.850Z,988.90
2023-03-07T10:02:33.847Z,988.87
2023-03-07T10:03:33.888Z,988.91
2023-03-07T10:04:33.851Z,988.87
2023-03-07T10:05:33.826Z,988.82
2023-03-07T10:06:33.800Z,988.82
2023-03-07T10:07:33.787Z,988.83
2023-03-07T10:08:33.792Z,988.79
2023-03-07T10:09:33.763Z,988.86
2023-03-07T10:10:33.769Z,988.80
2023-03-07T10:11:33.780Z,988.86
2023-03-07T10:12:33.734Z,988.89
2023-03-07T10:13:33.720Z,988.82
2023-03-07T10:14:33.766Z,988.80
2023-03-07T10:15:33.760Z,988.83
2023-03-07T10:16:33.757Z,988.84
2023-03-07T10:17:33.674Z,988.83
2023-03-07T10:18:33.666Z,988.87
2023-03-07T10:19:33.660Z,988.81
2023-03-07T10:20:33.648Z,988.86
2023-03-07T10:21:33.663Z,988.93
2023-03-07T10:22:33.633Z,988.90
2023-03-07T10:23:33.626Z,988.87
2023-03-07T10:24:33.608Z,988.86
2023-03-07T10:25:33.603Z,988.87
2023-03-07T10:26:33.582Z,988.92
2023-03-07T10:27:33.569Z,988.93
2023-03-07T10:28:33.555Z,988.92
2023-03-07T10:29:33.554Z,988.90
2023-03-07T10:30:33.573Z,989.01
2023-03-07T10:31:33.527Z,988.97
2023-03-07T10:32:33.566Z,988.88
2023-03-07T10:33:33.498Z,988.97
2023-03-07T10:34:33.485Z,988.94
2023-03-07T10:35:33.513Z,988.98
2023-03-07T10:36:33.465Z,988.96
2023-03-07T10:37:33.451Z,988.99
2023-03-07T10:38:33.452Z,988.91
2023-03-07T10:39:33.429Z,988.95
2023-03-07T10:40:33.505Z,988.92
2023-03-07T10:41:33.406Z,988.95
2023-03-07T10:42:33.400Z,988.96
2023-03-07T10:43:33.388Z,988.99
2023-03-07T10:44:33.390Z,988.85
2023-03-07T10:45:33.365Z,988.94
2023-03-07T10:46:33.466Z,988.95
2023-03-07T10:47:33.347Z,988.92
2023-03-07T10:48:33.332Z,988.89
2023-03-07T10:49:33.346Z,988.91
2023-03-07T10:50:33.309Z,988.84
2023-03-07T10:51:33.308Z,988.86
2023-03-07T10:52:33.286Z,988.89
2023-03-07T10:53:33.276Z,988.77
2023-03-07T10:54:33.266Z,988.79
2023-03-07T10:55:33.256Z,988.80
2023-03-07T10:56:33.256Z,988.88
2023-03-07T10:57:33.232Z,988.91
2023-03-07T10:58:33.222Z,988.92
2023-03-07T10:59:33.211Z,988.91
2023-03-07T11:00:33.197Z,988.89
2023-03-07T11:01:33.350Z,988.82
2023-03-07T11:02:33.198Z,988.87
2023-03-07T11:03:46.121Z,988.84
2023-03-07T11:04:34.243Z,988.77
2023-03-07T11:05:33.144Z,988.81
2023-03-07T11:06:33.157Z,988.83
2023-03-07T11:07:33.123Z,988.81
2023-03-07T11:08:33.114Z,988.86
2023-03-07T11:09:33.110Z,988.76
2023-03-07T11:10:33.104Z,988.82
2023-03-07T11:11:33.092Z,988.76
2023-03-07T11:12:33.073Z,988.77
2023-03-07T11:13:33.059Z,988.73
2023-03-07T11:14:33.045Z,988.66
2023-03-07T11:15:33.065Z,988.65
2023-03-07T11:16:33.222Z,988.64
2023-03-07T11:17:33.015Z,988.72
2023-03-07T11:18:33.042Z,988.70
2023-03-07T11:19:32.997Z,988.72
2023-03-07T11:20:32.981Z,988.66
2023-03-07T11:21:33.042Z,988.64
2023-03-07T11:22:32.957Z,988.63
2023-03-07T11:23:32.968Z,988.66
2023-03-07T11:24:32.946Z,988.62
2023-03-07T11:25:32.924Z,988.59
2023-03-07T11:26:33.051Z,988.61
2023-03-07T11:27:32.904Z,988.59
2023-03-07T11:28:32.898Z,988.50
2023-03-07T11:29:32.882Z,988.50
2023-03-07T11:30:32.873Z,988.51
2023-03-07T11:31:32.873Z,988.53
2023-03-07T11:32:32.891Z,988.57
2023-03-07T11:33:32.838Z,988.54
2023-03-07T11:34:32.857Z,988.48
2023-03-07T11:35:32.844Z,988.47
2023-03-07T11:36:32.824Z,988.48
2023-03-07T11:37:32.795Z,988.49
2023-03-07T11:38:32.785Z,988.49
2023-03-07T11:39:32.774Z,988.51
2023-03-07T11:40:32.783Z,988.44
2023-03-07T11:41:32.765Z,988.49
2023-03-07T11:42:32.795Z,988.46
2023-03-07T11:43:32.732Z,988.41
2023-03-07T11:44:32.729Z,988.40
2023-03-07T11:45:32.713Z,988.39
2023-03-07T11:46:32.875Z,988.39
2023-03-07T11:47:32.690Z,988.38
2023-03-07T11:48:32.678Z,988.30
2023-03-07T11:49:32.667Z,988.32
2023-03-07T11:50:32.679Z,988.23
2023-03-07T11:51:32.668Z,988.27
2023-03-07T11:52:32.678Z,988.26
2023-03-07T11:53:32.694Z,988.34
2023-03-07T11:54:32.614Z,988.33
2023-03-07T11:55:34.916Z,988.32
2023-03-07T11:56:32.614Z,988.32
2023-03-07T11:57:32.588Z,988.33
2023-03-07T11:58:32.575Z,988.29
2023-03-07T11:59:32.575Z,988.26
2023-03-07T12:00:32.608Z,988.25
2023-03-07T12:01:32.568Z,988.23
2023-03-07T12:02:32.551Z,988.26
2023-03-07T12:03:32.523Z,988.23
2023-03-07T12:04:32.516Z,988.22
2023-03-07T12:05:32.518Z,988.22
2023-03-07T12:06:32.547Z,988.23
2023-03-07T12:07:32.477Z,988.20
2023-03-07T12:08:32.472Z,988.27
2023-03-07T12:09:32.458Z,988.29
2023-03-07T12:10:32.447Z,988.27
2023-03-07T12:11:32.461Z,988.29
2023-03-07T12:12:32.430Z,988.27
2023-03-07T12:13:32.415Z,988.20
2023-03-07T12:14:32.438Z,988.20
2023-03-07T12:15:32.396Z,988.22
2023-03-07T12:16:32.519Z,988.27
2023-03-07T12:17:32.388Z,988.27
2023-03-07T12:18:32.367Z,988.27
2023-03-07T12:19:32.811Z,988.32
2023-03-07T12:20:32.340Z,988.34
2023-03-07T12:21:32.355Z,988.31
2023-03-07T12:22:32.346Z,988.28
2023-03-07T12:23:32.310Z,988.32
2023-03-07T12:24:32.296Z,988.30
2023-03-07T12:25:32.308Z,988.32
2023-03-07T12:26:32.288Z,988.33
2023-03-07T12:27:32.267Z,988.30
2023-03-07T12:28:32.253Z,988.32